アティラウ の空港の天気 - METARとTAF

Atyrau Airport ( UATG / GUW ) - カザフスタン Atyrau
飛行場実況気象(Metar)
観測時間05/23 05:30 ORAT (05/23 00:30 UTC)
風向・風速東北東 6m/s
視程10km以上
天気現象
なし
気温18℃
湿度32%
気圧1023hPa
METARUATG 230030Z 07006MPS CAVOK 18/01 Q1023 R14/CLRD70 NOSIG RMK QFE769/1026
過去の天気等 Google飛行場航空写真 Wunderground天気予報

過去48時間のMETAR

飛行場予報(TAF)
発表時間: 5/23 04:04 ORAT (5/22 23:04 UTC)
予報対象時間: 23日5時 ORAT ~ 24日5時 ORAT
風向・風速東 7m/s
視程10km以上
全天の4割程度の積乱雲 雲底高度 1,010m
23日11時 ORAT ~ 23日13時 ORAT に徐々に
風向・風速東南東 7m/s 瞬間風速 12m/s
23日22時 ORAT ~ 23日24時 ORAT に徐々に
風向・風速南東 7m/s
TAF UATG 222304Z 2300/2324 09007MPS 9999 SCT033CB TX33/2312Z TN18/2301Z
BECMG 2306/2308 11007G12MPS
BECMG 2317/2319 14007MPS